sensor_id;sensor_type;location;lat;lon;timestamp;P1;durP1;ratioP1;P2;durP2;ratioP2
56810;SDS011;42691;47.234;27.494;2022-10-31T00:01:23;7.90;;;5.38;;
56810;SDS011;42691;47.234;27.494;2022-10-31T00:03:48;7.43;;;5.07;;
56810;SDS011;42691;47.234;27.494;2022-10-31T00:06:14;7.00;;;4.40;;
56810;SDS011;42691;47.234;27.494;2022-10-31T00:08:43;8.63;;;5.95;;
56810;SDS011;42691;47.234;27.494;2022-10-31T00:11:09;10.48;;;4.03;;
56810;SDS011;42691;47.234;27.494;2022-10-31T00:13:35;9.73;;;7.10;;
56810;SDS011;42691;47.234;27.494;2022-10-31T00:16:01;6.55;;;4.13;;
56810;SDS011;42691;47.234;27.494;2022-10-31T00:18:26;7.88;;;5.57;;
56810;SDS011;42691;47.234;27.494;2022-10-31T00:21:01;17.98;;;6.68;;
56810;SDS011;42691;47.234;27.494;2022-10-31T00:23:28;6.93;;;4.57;;
56810;SDS011;42691;47.234;27.494;2022-10-31T00:25:54;13.25;;;5.22;;
56810;SDS011;42691;47.234;27.494;2022-10-31T00:28:24;18.80;;;7.03;;
56810;SDS011;42691;47.234;27.494;2022-10-31T00:30:50;8.80;;;5.50;;
56810;SDS011;42691;47.234;27.494;2022-10-31T00:33:15;8.73;;;4.93;;
56810;SDS011;42691;47.234;27.494;2022-10-31T00:35:41;10.60;;;5.75;;
56810;SDS011;42691;47.234;27.494;2022-10-31T00:38:06;8.52;;;5.00;;
56810;SDS011;42691;47.234;27.494;2022-10-31T00:40:31;24.58;;;6.30;;
56810;SDS011;42691;47.234;27.494;2022-10-31T00:42:57;12.00;;;5.03;;
56810;SDS011;42691;47.234;27.494;2022-10-31T00:45:22;12.27;;;6.18;;
56810;SDS011;42691;47.234;27.494;2022-10-31T00:47:48;12.63;;;7.53;;
56810;SDS011;42691;47.234;27.494;2022-10-31T00:50:13;10.15;;;6.53;;
56810;SDS011;42691;47.234;27.494;2022-10-31T00:52:39;13.73;;;6.63;;
56810;SDS011;42691;47.234;27.494;2022-10-31T00:55:04;10.23;;;5.28;;
56810;SDS011;42691;47.234;27.494;2022-10-31T00:57:30;47.00;;;10.80;;
56810;SDS011;42691;47.234;27.494;2022-10-31T00:59:55;17.63;;;7.70;;
56810;SDS011;42691;47.234;27.494;2022-10-31T01:02:20;8.07;;;5.22;;
56810;SDS011;42691;47.234;27.494;2022-10-31T01:04:46;9.68;;;6.07;;
56810;SDS011;42691;47.234;27.494;2022-10-31T01:07:11;8.90;;;6.65;;
56810;SDS011;42691;47.234;27.494;2022-10-31T01:09:38;9.27;;;6.00;;
56810;SDS011;42691;47.234;27.494;2022-10-31T01:12:04;9.55;;;6.55;;
56810;SDS011;42691;47.234;27.494;2022-10-31T01:14:30;14.18;;;8.20;;
56810;SDS011;42691;47.234;27.494;2022-10-31T01:16:55;11.73;;;6.70;;
56810;SDS011;42691;47.234;27.494;2022-10-31T01:19:20;17.90;;;10.82;;
56810;SDS011;42691;47.234;27.494;2022-10-31T01:21:46;16.05;;;8.95;;
56810;SDS011;42691;47.234;27.494;2022-10-31T01:24:11;10.90;;;8.00;;
56810;SDS011;42691;47.234;27.494;2022-10-31T01:26:37;14.27;;;6.22;;
56810;SDS011;42691;47.234;27.494;2022-10-31T01:29:04;13.05;;;7.93;;
56810;SDS011;42691;47.234;27.494;2022-10-31T01:31:34;14.20;;;7.47;;
56810;SDS011;42691;47.234;27.494;2022-10-31T01:34:02;11.38;;;6.43;;
56810;SDS011;42691;47.234;27.494;2022-10-31T01:36:29;14.32;;;7.78;;
56810;SDS011;42691;47.234;27.494;2022-10-31T01:38:57;10.45;;;7.13;;
56810;SDS011;42691;47.234;27.494;2022-10-31T01:41:25;16.63;;;7.15;;
56810;SDS011;42691;47.234;27.494;2022-10-31T01:43:54;15.60;;;8.35;;
56810;SDS011;42691;47.234;27.494;2022-10-31T01:46:29;13.90;;;7.80;;
56810;SDS011;42691;47.234;27.494;2022-10-31T01:48:59;42.28;;;10.77;;
56810;SDS011;42691;47.234;27.494;2022-10-31T01:51:28;13.85;;;6.65;;
56810;SDS011;42691;47.234;27.494;2022-10-31T01:53:59;12.68;;;7.95;;
56810;SDS011;42691;47.234;27.494;2022-10-31T01:56:29;9.20;;;7.10;;
56810;SDS011;42691;47.234;27.494;2022-10-31T01:58:55;14.48;;;8.20;;
56810;SDS011;42691;47.234;27.494;2022-10-31T02:01:24;11.88;;;7.45;;
56810;SDS011;42691;47.234;27.494;2022-10-31T02:03:50;10.90;;;8.15;;
56810;SDS011;42691;47.234;27.494;2022-10-31T02:06:19;26.52;;;9.60;;
56810;SDS011;42691;47.234;27.494;2022-10-31T02:09:06;9.18;;;6.45;;
56810;SDS011;42691;47.234;27.494;2022-10-31T02:11:32;21.15;;;12.02;;
56810;SDS011;42691;47.234;27.494;2022-10-31T02:14:00;11.50;;;6.70;;
56810;SDS011;42691;47.234;27.494;2022-10-31T02:16:27;15.85;;;7.68;;
56810;SDS011;42691;47.234;27.494;2022-10-31T02:18:53;14.13;;;10.02;;
56810;SDS011;42691;47.234;27.494;2022-10-31T02:21:42;31.58;;;11.65;;
56810;SDS011;42691;47.234;27.494;2022-10-31T02:40:35;12.13;;;7.72;;
56810;SDS011;42691;47.234;27.494;2022-10-31T02:45:58;13.20;;;8.70;;
56810;SDS011;42691;47.234;27.494;2022-10-31T02:48:27;10.88;;;7.53;;
56810;SDS011;42691;47.234;27.494;2022-10-31T02:51:00;14.70;;;9.38;;
56810;SDS011;42691;47.234;27.494;2022-10-31T02:53:31;11.57;;;6.57;;
56810;SDS011;42691;47.234;27.494;2022-10-31T02:56:00;12.02;;;7.50;;
56810;SDS011;42691;47.234;27.494;2022-10-31T02:58:30;10.15;;;7.70;;
56810;SDS011;42691;47.234;27.494;2022-10-31T03:06:24;12.55;;;8.05;;
56810;SDS011;42691;47.234;27.494;2022-10-31T03:11:44;14.07;;;9.68;;
56810;SDS011;42691;47.234;27.494;2022-10-31T03:14:24;17.90;;;10.20;;
56810;SDS011;42691;47.234;27.494;2022-10-31T03:17:02;20.48;;;11.02;;
56810;SDS011;42691;47.234;27.494;2022-10-31T03:19:42;14.32;;;8.50;;
56810;SDS011;42691;47.234;27.494;2022-10-31T03:22:15;30.02;;;12.07;;
56810;SDS011;42691;47.234;27.494;2022-10-31T03:24:44;12.87;;;9.93;;
56810;SDS011;42691;47.234;27.494;2022-10-31T03:27:12;14.65;;;11.57;;
56810;SDS011;42691;47.234;27.494;2022-10-31T03:29:42;12.73;;;9.55;;
56810;SDS011;42691;47.234;27.494;2022-10-31T03:32:13;17.90;;;12.98;;
56810;SDS011;42691;47.234;27.494;2022-10-31T03:34:46;13.25;;;8.73;;
56810;SDS011;42691;47.234;27.494;2022-10-31T03:37:15;18.02;;;11.35;;
56810;SDS011;42691;47.234;27.494;2022-10-31T03:39:44;49.63;;;12.00;;
56810;SDS011;42691;47.234;27.494;2022-10-31T03:42:14;23.05;;;13.73;;
56810;SDS011;42691;47.234;27.494;2022-10-31T03:44:44;18.88;;;10.95;;
56810;SDS011;42691;47.234;27.494;2022-10-31T03:47:15;15.85;;;9.82;;
56810;SDS011;42691;47.234;27.494;2022-10-31T03:49:41;13.88;;;11.02;;
56810;SDS011;42691;47.234;27.494;2022-10-31T03:57:27;15.23;;;9.10;;
56810;SDS011;42691;47.234;27.494;2022-10-31T04:02:34;17.90;;;12.38;;
56810;SDS011;42691;47.234;27.494;2022-10-31T04:05:04;20.38;;;10.25;;
56810;SDS011;42691;47.234;27.494;2022-10-31T04:07:32;16.02;;;11.48;;
56810;SDS011;42691;47.234;27.494;2022-10-31T04:10:02;10.98;;;8.88;;
56810;SDS011;42691;47.234;27.494;2022-10-31T04:12:30;11.95;;;8.57;;
56810;SDS011;42691;47.234;27.494;2022-10-31T04:14:59;16.83;;;10.93;;
56810;SDS011;42691;47.234;27.494;2022-10-31T04:17:29;24.38;;;10.98;;
56810;SDS011;42691;47.234;27.494;2022-10-31T04:20:01;13.98;;;8.93;;
56810;SDS011;42691;47.234;27.494;2022-10-31T04:22:27;15.15;;;9.43;;
56810;SDS011;42691;47.234;27.494;2022-10-31T04:24:53;11.50;;;7.80;;
56810;SDS011;42691;47.234;27.494;2022-10-31T04:27:18;17.70;;;9.63;;
56810;SDS011;42691;47.234;27.494;2022-10-31T04:29:44;19.88;;;11.13;;
56810;SDS011;42691;47.234;27.494;2022-10-31T04:32:09;17.70;;;9.68;;
56810;SDS011;42691;47.234;27.494;2022-10-31T04:34:35;26.50;;;12.35;;
56810;SDS011;42691;47.234;27.494;2022-10-31T04:37:00;12.77;;;10.30;;
56810;SDS011;42691;47.234;27.494;2022-10-31T04:39:25;15.85;;;9.30;;
56810;SDS011;42691;47.234;27.494;2022-10-31T04:41:51;17.98;;;11.05;;
56810;SDS011;42691;47.234;27.494;2022-10-31T04:44:16;14.05;;;9.40;;
56810;SDS011;42691;47.234;27.494;2022-10-31T04:46:42;17.10;;;10.50;;
56810;SDS011;42691;47.234;27.494;2022-10-31T04:49:08;26.10;;;12.00;;
56810;SDS011;42691;47.234;27.494;2022-10-31T04:51:33;31.65;;;12.38;;
56810;SDS011;42691;47.234;27.494;2022-10-31T04:53:58;12.80;;;10.50;;
56810;SDS011;42691;47.234;27.494;2022-10-31T04:56:24;14.40;;;9.70;;
56810;SDS011;42691;47.234;27.494;2022-10-31T04:58:49;19.10;;;11.55;;
56810;SDS011;42691;47.234;27.494;2022-10-31T05:01:15;17.60;;;13.15;;
56810;SDS011;42691;47.234;27.494;2022-10-31T05:03:40;30.60;;;13.25;;
56810;SDS011;42691;47.234;27.494;2022-10-31T05:06:06;25.83;;;11.05;;
56810;SDS011;42691;47.234;27.494;2022-10-31T05:08:32;15.25;;;10.15;;
56810;SDS011;42691;47.234;27.494;2022-10-31T05:11:00;18.23;;;12.02;;
56810;SDS011;42691;47.234;27.494;2022-10-31T05:13:27;16.42;;;11.70;;
56810;SDS011;42691;47.234;27.494;2022-10-31T05:15:53;23.15;;;14.13;;
56810;SDS011;42691;47.234;27.494;2022-10-31T05:18:18;23.23;;;15.23;;
56810;SDS011;42691;47.234;27.494;2022-10-31T05:20:44;21.30;;;11.18;;
56810;SDS011;42691;47.234;27.494;2022-10-31T05:23:09;19.08;;;11.80;;
56810;SDS011;42691;47.234;27.494;2022-10-31T05:25:35;20.83;;;14.27;;
56810;SDS011;42691;47.234;27.494;2022-10-31T05:28:00;16.48;;;9.50;;
56810;SDS011;42691;47.234;27.494;2022-10-31T05:30:30;16.65;;;9.98;;
56810;SDS011;42691;47.234;27.494;2022-10-31T05:32:56;12.65;;;9.65;;
56810;SDS011;42691;47.234;27.494;2022-10-31T05:35:26;16.98;;;9.25;;
56810;SDS011;42691;47.234;27.494;2022-10-31T05:37:53;16.27;;;10.63;;
56810;SDS011;42691;47.234;27.494;2022-10-31T05:40:20;16.08;;;8.73;;
56810;SDS011;42691;47.234;27.494;2022-10-31T05:42:46;18.60;;;12.82;;
56810;SDS011;42691;47.234;27.494;2022-10-31T05:45:13;17.05;;;10.38;;
56810;SDS011;42691;47.234;27.494;2022-10-31T05:47:40;20.67;;;10.38;;
56810;SDS011;42691;47.234;27.494;2022-10-31T05:50:06;13.63;;;8.85;;
56810;SDS011;42691;47.234;27.494;2022-10-31T05:52:32;14.40;;;9.63;;
56810;SDS011;42691;47.234;27.494;2022-10-31T05:54:58;15.90;;;10.73;;
56810;SDS011;42691;47.234;27.494;2022-10-31T05:57:24;14.73;;;10.48;;
56810;SDS011;42691;47.234;27.494;2022-10-31T05:59:50;19.60;;;15.18;;
56810;SDS011;42691;47.234;27.494;2022-10-31T06:02:18;22.67;;;12.18;;
56810;SDS011;42691;47.234;27.494;2022-10-31T06:04:44;22.13;;;10.57;;
56810;SDS011;42691;47.234;27.494;2022-10-31T06:07:10;19.73;;;10.77;;
56810;SDS011;42691;47.234;27.494;2022-10-31T06:09:35;17.23;;;11.82;;
56810;SDS011;42691;47.234;27.494;2022-10-31T06:12:00;11.75;;;8.68;;
56810;SDS011;42691;47.234;27.494;2022-10-31T06:14:26;16.63;;;11.13;;
56810;SDS011;42691;47.234;27.494;2022-10-31T06:16:51;22.08;;;11.40;;
56810;SDS011;42691;47.234;27.494;2022-10-31T06:19:17;22.92;;;12.38;;
56810;SDS011;42691;47.234;27.494;2022-10-31T06:21:42;12.57;;;9.10;;
56810;SDS011;42691;47.234;27.494;2022-10-31T06:24:08;12.35;;;9.10;;
56810;SDS011;42691;47.234;27.494;2022-10-31T06:26:33;16.30;;;11.02;;
56810;SDS011;42691;47.234;27.494;2022-10-31T06:28:58;18.60;;;11.02;;
56810;SDS011;42691;47.234;27.494;2022-10-31T06:31:24;21.50;;;11.23;;
56810;SDS011;42691;47.234;27.494;2022-10-31T06:33:49;17.25;;;12.45;;
56810;SDS011;42691;47.234;27.494;2022-10-31T06:36:15;14.75;;;9.55;;
56810;SDS011;42691;47.234;27.494;2022-10-31T06:38:40;22.67;;;9.75;;
56810;SDS011;42691;47.234;27.494;2022-10-31T06:41:06;12.43;;;10.18;;
56810;SDS011;42691;47.234;27.494;2022-10-31T06:43:31;13.77;;;9.55;;
56810;SDS011;42691;47.234;27.494;2022-10-31T06:45:57;23.77;;;11.43;;
56810;SDS011;42691;47.234;27.494;2022-10-31T06:48:27;19.55;;;9.10;;
56810;SDS011;42691;47.234;27.494;2022-10-31T06:50:53;15.82;;;10.98;;
56810;SDS011;42691;47.234;27.494;2022-10-31T06:53:18;10.80;;;7.70;;
56810;SDS011;42691;47.234;27.494;2022-10-31T06:55:43;7.50;;;4.43;;
56810;SDS011;42691;47.234;27.494;2022-10-31T06:58:10;17.17;;;10.25;;
56810;SDS011;42691;47.234;27.494;2022-10-31T07:00:36;12.85;;;8.60;;
56810;SDS011;42691;47.234;27.494;2022-10-31T07:03:06;14.43;;;9.75;;
56810;SDS011;42691;47.234;27.494;2022-10-31T07:05:34;9.85;;;7.82;;
56810;SDS011;42691;47.234;27.494;2022-10-31T07:08:01;13.48;;;9.02;;
56810;SDS011;42691;47.234;27.494;2022-10-31T07:10:32;18.08;;;9.48;;
56810;SDS011;42691;47.234;27.494;2022-10-31T07:13:00;12.85;;;10.57;;
56810;SDS011;42691;47.234;27.494;2022-10-31T07:15:29;12.18;;;8.13;;
56810;SDS011;42691;47.234;27.494;2022-10-31T07:17:59;14.85;;;8.50;;
56810;SDS011;42691;47.234;27.494;2022-10-31T07:20:26;13.57;;;9.38;;
56810;SDS011;42691;47.234;27.494;2022-10-31T07:22:52;16.08;;;10.48;;
56810;SDS011;42691;47.234;27.494;2022-10-31T07:25:17;11.50;;;7.97;;
56810;SDS011;42691;47.234;27.494;2022-10-31T07:27:43;15.75;;;10.57;;
56810;SDS011;42691;47.234;27.494;2022-10-31T07:30:09;15.52;;;10.25;;
56810;SDS011;42691;47.234;27.494;2022-10-31T07:32:46;16.92;;;9.45;;
56810;SDS011;42691;47.234;27.494;2022-10-31T07:35:13;13.45;;;9.88;;
56810;SDS011;42691;47.234;27.494;2022-10-31T07:37:41;14.27;;;9.70;;
56810;SDS011;42691;47.234;27.494;2022-10-31T07:40:07;18.48;;;11.02;;
56810;SDS011;42691;47.234;27.494;2022-10-31T07:42:37;17.02;;;10.57;;
56810;SDS011;42691;47.234;27.494;2022-10-31T07:45:07;17.70;;;11.07;;
56810;SDS011;42691;47.234;27.494;2022-10-31T07:47:44;15.45;;;10.40;;
56810;SDS011;42691;47.234;27.494;2022-10-31T07:50:15;15.52;;;11.35;;
56810;SDS011;42691;47.234;27.494;2022-10-31T07:52:42;14.75;;;9.48;;
56810;SDS011;42691;47.234;27.494;2022-10-31T07:55:08;12.38;;;8.63;;
56810;SDS011;42691;47.234;27.494;2022-10-31T07:57:34;20.75;;;11.70;;
56810;SDS011;42691;47.234;27.494;2022-10-31T08:00:02;14.45;;;11.15;;
56810;SDS011;42691;47.234;27.494;2022-10-31T08:02:28;12.80;;;9.23;;
56810;SDS011;42691;47.234;27.494;2022-10-31T08:04:54;16.08;;;10.55;;
56810;SDS011;42691;47.234;27.494;2022-10-31T08:07:20;14.50;;;11.40;;
56810;SDS011;42691;47.234;27.494;2022-10-31T08:09:45;15.70;;;10.20;;
56810;SDS011;42691;47.234;27.494;2022-10-31T08:12:11;16.60;;;10.68;;
56810;SDS011;42691;47.234;27.494;2022-10-31T08:14:36;14.23;;;11.38;;
56810;SDS011;42691;47.234;27.494;2022-10-31T08:17:01;13.73;;;10.57;;
56810;SDS011;42691;47.234;27.494;2022-10-31T08:19:27;12.20;;;9.23;;
56810;SDS011;42691;47.234;27.494;2022-10-31T08:21:53;15.48;;;10.02;;
56810;SDS011;42691;47.234;27.494;2022-10-31T08:24:20;24.05;;;11.38;;
56810;SDS011;42691;47.234;27.494;2022-10-31T08:26:46;18.27;;;11.35;;
56810;SDS011;42691;47.234;27.494;2022-10-31T08:29:11;18.38;;;12.57;;
56810;SDS011;42691;47.234;27.494;2022-10-31T08:31:37;15.90;;;11.00;;
56810;SDS011;42691;47.234;27.494;2022-10-31T08:34:02;18.02;;;10.43;;
56810;SDS011;42691;47.234;27.494;2022-10-31T08:36:28;15.27;;;11.55;;
56810;SDS011;42691;47.234;27.494;2022-10-31T08:38:54;13.13;;;9.65;;
56810;SDS011;42691;47.234;27.494;2022-10-31T08:41:19;15.02;;;11.50;;
56810;SDS011;42691;47.234;27.494;2022-10-31T08:43:45;14.30;;;9.90;;
56810;SDS011;42691;47.234;27.494;2022-10-31T08:46:11;15.35;;;11.02;;
56810;SDS011;42691;47.234;27.494;2022-10-31T08:48:36;14.32;;;12.82;;
56810;SDS011;42691;47.234;27.494;2022-10-31T08:51:02;18.58;;;12.18;;
56810;SDS011;42691;47.234;27.494;2022-10-31T08:53:27;12.63;;;8.82;;
56810;SDS011;42691;47.234;27.494;2022-10-31T08:55:56;17.58;;;9.90;;
56810;SDS011;42691;47.234;27.494;2022-10-31T08:58:22;17.38;;;12.63;;
56810;SDS011;42691;47.234;27.494;2022-10-31T09:00:49;15.57;;;10.77;;
56810;SDS011;42691;47.234;27.494;2022-10-31T09:03:20;19.77;;;10.32;;
56810;SDS011;42691;47.234;27.494;2022-10-31T09:05:47;13.82;;;10.05;;
56810;SDS011;42691;47.234;27.494;2022-10-31T09:08:13;14.75;;;9.32;;
56810;SDS011;42691;47.234;27.494;2022-10-31T09:10:39;18.48;;;12.10;;
56810;SDS011;42691;47.234;27.494;2022-10-31T09:13:06;17.65;;;11.23;;
56810;SDS011;42691;47.234;27.494;2022-10-31T09:15:35;11.20;;;9.77;;
56810;SDS011;42691;47.234;27.494;2022-10-31T09:18:03;18.83;;;11.45;;
56810;SDS011;42691;47.234;27.494;2022-10-31T09:20:30;14.35;;;9.05;;
56810;SDS011;42691;47.234;27.494;2022-10-31T09:23:00;10.05;;;8.82;;
56810;SDS011;42691;47.234;27.494;2022-10-31T09:25:27;16.45;;;10.23;;
56810;SDS011;42691;47.234;27.494;2022-10-31T09:27:57;14.35;;;10.32;;
56810;SDS011;42691;47.234;27.494;2022-10-31T09:30:24;14.05;;;9.43;;
56810;SDS011;42691;47.234;27.494;2022-10-31T09:32:56;15.88;;;11.07;;
56810;SDS011;42691;47.234;27.494;2022-10-31T09:35:23;11.53;;;9.47;;
56810;SDS011;42691;47.234;27.494;2022-10-31T09:37:59;12.65;;;9.35;;
56810;SDS011;42691;47.234;27.494;2022-10-31T09:40:31;14.25;;;9.85;;
56810;SDS011;42691;47.234;27.494;2022-10-31T09:51:18;15.60;;;11.45;;
56810;SDS011;42691;47.234;27.494;2022-10-31T09:56:36;17.17;;;11.60;;
56810;SDS011;42691;47.234;27.494;2022-10-31T09:59:03;18.05;;;12.32;;
56810;SDS011;42691;47.234;27.494;2022-10-31T10:01:37;16.67;;;11.48;;
56810;SDS011;42691;47.234;27.494;2022-10-31T10:07:53;20.98;;;11.25;;
56810;SDS011;42691;47.234;27.494;2022-10-31T10:09:55;15.90;;;12.10;;
56810;SDS011;42691;47.234;27.494;2022-10-31T10:12:34;16.83;;;12.80;;
56810;SDS011;42691;47.234;27.494;2022-10-31T10:17:46;21.42;;;11.02;;
56810;SDS011;42691;47.234;27.494;2022-10-31T10:20:32;23.30;;;11.38;;
56810;SDS011;42691;47.234;27.494;2022-10-31T10:25:47;12.80;;;8.60;;
56810;SDS011;42691;47.234;27.494;2022-10-31T10:28:32;13.38;;;8.88;;
56810;SDS011;42691;47.234;27.494;2022-10-31T10:31:08;17.85;;;10.00;;
56810;SDS011;42691;47.234;27.494;2022-10-31T10:34:05;9.48;;;8.40;;
56810;SDS011;42691;47.234;27.494;2022-10-31T10:36:53;15.50;;;9.40;;
56810;SDS011;42691;47.234;27.494;2022-10-31T10:39:38;12.85;;;7.85;;
56810;SDS011;42691;47.234;27.494;2022-10-31T10:42:11;12.90;;;9.63;;
56810;SDS011;42691;47.234;27.494;2022-10-31T10:44:57;14.48;;;8.10;;
56810;SDS011;42691;47.234;27.494;2022-10-31T10:47:45;13.45;;;7.00;;
56810;SDS011;42691;47.234;27.494;2022-10-31T10:50:18;12.13;;;6.90;;
56810;SDS011;42691;47.234;27.494;2022-10-31T10:55:41;11.75;;;8.48;;
56810;SDS011;42691;47.234;27.494;2022-10-31T10:58:18;16.20;;;8.23;;
56810;SDS011;42691;47.234;27.494;2022-10-31T11:00:44;10.32;;;7.57;;
56810;SDS011;42691;47.234;27.494;2022-10-31T11:03:11;8.77;;;6.03;;
56810;SDS011;42691;47.234;27.494;2022-10-31T11:05:40;11.40;;;6.95;;
56810;SDS011;42691;47.234;27.494;2022-10-31T11:08:10;12.50;;;6.78;;
56810;SDS011;42691;47.234;27.494;2022-10-31T11:10:36;10.60;;;6.10;;
56810;SDS011;42691;47.234;27.494;2022-10-31T11:15:31;11.98;;;6.80;;
56810;SDS011;42691;47.234;27.494;2022-10-31T11:18:03;15.55;;;8.10;;
56810;SDS011;42691;47.234;27.494;2022-10-31T11:20:31;13.93;;;6.88;;
56810;SDS011;42691;47.234;27.494;2022-10-31T11:23:22;10.65;;;8.00;;
56810;SDS011;42691;47.234;27.494;2022-10-31T11:25:52;14.05;;;8.70;;
56810;SDS011;42691;47.234;27.494;2022-10-31T11:28:21;12.20;;;8.18;;
56810;SDS011;42691;47.234;27.494;2022-10-31T11:30:48;10.52;;;8.32;;
56810;SDS011;42691;47.234;27.494;2022-10-31T11:33:16;13.90;;;8.63;;
56810;SDS011;42691;47.234;27.494;2022-10-31T11:35:44;13.63;;;9.70;;
56810;SDS011;42691;47.234;27.494;2022-10-31T11:38:12;14.82;;;7.50;;
56810;SDS011;42691;47.234;27.494;2022-10-31T11:40:58;13.02;;;7.60;;
56810;SDS011;42691;47.234;27.494;2022-10-31T11:43:35;13.55;;;8.27;;
56810;SDS011;42691;47.234;27.494;2022-10-31T11:46:08;10.32;;;7.82;;
56810;SDS011;42691;47.234;27.494;2022-10-31T11:48:35;11.02;;;8.07;;
56810;SDS011;42691;47.234;27.494;2022-10-31T11:51:01;22.95;;;9.00;;
56810;SDS011;42691;47.234;27.494;2022-10-31T11:53:29;26.50;;;10.20;;
56810;SDS011;42691;47.234;27.494;2022-10-31T11:58:40;15.93;;;8.02;;
56810;SDS011;42691;47.234;27.494;2022-10-31T12:01:08;14.73;;;7.18;;
56810;SDS011;42691;47.234;27.494;2022-10-31T12:03:54;10.05;;;6.60;;
56810;SDS011;42691;47.234;27.494;2022-10-31T12:06:34;10.27;;;6.40;;
56810;SDS011;42691;47.234;27.494;2022-10-31T12:09:16;11.95;;;6.68;;
56810;SDS011;42691;47.234;27.494;2022-10-31T12:11:47;14.65;;;6.57;;
56810;SDS011;42691;47.234;27.494;2022-10-31T12:15:19;11.48;;;7.07;;
56810;SDS011;42691;47.234;27.494;2022-10-31T12:17:39;9.65;;;6.57;;
56810;SDS011;42691;47.234;27.494;2022-10-31T12:25:31;9.02;;;6.15;;
56810;SDS011;42691;47.234;27.494;2022-10-31T12:31:03;11.38;;;7.38;;
56810;SDS011;42691;47.234;27.494;2022-10-31T12:50:13;14.20;;;6.90;;
56810;SDS011;42691;47.234;27.494;2022-10-31T12:52:48;14.45;;;8.90;;
56810;SDS011;42691;47.234;27.494;2022-10-31T12:57:56;13.73;;;7.18;;
56810;SDS011;42691;47.234;27.494;2022-10-31T13:00:26;13.07;;;8.45;;
56810;SDS011;42691;47.234;27.494;2022-10-31T13:02:56;10.68;;;7.03;;
56810;SDS011;42691;47.234;27.494;2022-10-31T13:05:48;15.07;;;9.43;;
56810;SDS011;42691;47.234;27.494;2022-10-31T13:08:17;11.30;;;7.13;;
56810;SDS011;42691;47.234;27.494;2022-10-31T13:11:06;11.00;;;6.50;;
56810;SDS011;42691;47.234;27.494;2022-10-31T13:16:17;13.35;;;8.48;;
56810;SDS011;42691;47.234;27.494;2022-10-31T13:18:54;11.05;;;8.13;;
56810;SDS011;42691;47.234;27.494;2022-10-31T13:21:42;13.93;;;7.72;;
56810;SDS011;42691;47.234;27.494;2022-10-31T13:24:13;13.60;;;8.98;;
56810;SDS011;42691;47.234;27.494;2022-10-31T13:26:49;18.75;;;8.70;;
56810;SDS011;42691;47.234;27.494;2022-10-31T13:29:19;15.70;;;6.00;;
56810;SDS011;42691;47.234;27.494;2022-10-31T13:31:53;12.68;;;7.43;;
56810;SDS011;42691;47.234;27.494;2022-10-31T13:40:09;11.25;;;7.85;;
56810;SDS011;42691;47.234;27.494;2022-10-31T13:45:30;14.60;;;7.90;;
56810;SDS011;42691;47.234;27.494;2022-10-31T13:50:39;15.30;;;8.88;;
56810;SDS011;42691;47.234;27.494;2022-10-31T13:53:10;15.50;;;8.10;;
56810;SDS011;42691;47.234;27.494;2022-10-31T13:55:44;12.55;;;7.47;;
56810;SDS011;42691;47.234;27.494;2022-10-31T14:00:46;11.85;;;6.53;;
56810;SDS011;42691;47.234;27.494;2022-10-31T14:03:43;14.38;;;8.10;;
56810;SDS011;42691;47.234;27.494;2022-10-31T14:06:11;26.75;;;10.05;;
56810;SDS011;42691;47.234;27.494;2022-10-31T14:08:40;10.57;;;6.47;;
56810;SDS011;42691;47.234;27.494;2022-10-31T14:11:22;11.20;;;9.65;;
56810;SDS011;42691;47.234;27.494;2022-10-31T14:13:52;10.90;;;8.05;;
56810;SDS011;42691;47.234;27.494;2022-10-31T14:18:50;13.40;;;7.00;;
56810;SDS011;42691;47.234;27.494;2022-10-31T14:23:48;12.63;;;7.15;;
56810;SDS011;42691;47.234;27.494;2022-10-31T14:28:43;9.52;;;6.68;;
56810;SDS011;42691;47.234;27.494;2022-10-31T14:34:18;15.43;;;7.15;;
56810;SDS011;42691;47.234;27.494;2022-10-31T14:53:23;17.27;;;9.90;;
56810;SDS011;42691;47.234;27.494;2022-10-31T14:55:53;15.85;;;9.82;;
56810;SDS011;42691;47.234;27.494;2022-10-31T14:58:22;14.30;;;7.00;;
56810;SDS011;42691;47.234;27.494;2022-10-31T15:00:56;15.05;;;8.38;;
56810;SDS011;42691;47.234;27.494;2022-10-31T15:03:38;15.85;;;9.15;;
56810;SDS011;42691;47.234;27.494;2022-10-31T15:06:15;28.92;;;10.23;;
56810;SDS011;42691;47.234;27.494;2022-10-31T15:08:47;18.83;;;8.23;;
56810;SDS011;42691;47.234;27.494;2022-10-31T15:11:21;10.25;;;7.38;;
56810;SDS011;42691;47.234;27.494;2022-10-31T15:13:53;14.43;;;8.88;;
56810;SDS011;42691;47.234;27.494;2022-10-31T15:21:19;14.27;;;8.93;;
56810;SDS011;42691;47.234;27.494;2022-10-31T15:23:47;15.65;;;9.40;;
56810;SDS011;42691;47.234;27.494;2022-10-31T15:26:15;11.63;;;7.93;;
56810;SDS011;42691;47.234;27.494;2022-10-31T15:28:43;13.88;;;8.82;;
56810;SDS011;42691;47.234;27.494;2022-10-31T15:31:12;14.38;;;10.43;;
56810;SDS011;42691;47.234;27.494;2022-10-31T15:33:41;17.77;;;9.68;;
56810;SDS011;42691;47.234;27.494;2022-10-31T15:36:25;13.07;;;8.95;;
56810;SDS011;42691;47.234;27.494;2022-10-31T15:38:51;20.40;;;9.32;;
56810;SDS011;42691;47.234;27.494;2022-10-31T15:43:48;13.65;;;9.55;;
56810;SDS011;42691;47.234;27.494;2022-10-31T15:46:14;13.18;;;8.27;;
56810;SDS011;42691;47.234;27.494;2022-10-31T15:48:43;15.75;;;10.43;;
56810;SDS011;42691;47.234;27.494;2022-10-31T15:51:10;13.70;;;11.48;;
56810;SDS011;42691;47.234;27.494;2022-10-31T15:53:37;27.55;;;10.55;;
56810;SDS011;42691;47.234;27.494;2022-10-31T15:56:13;26.00;;;9.23;;
56810;SDS011;42691;47.234;27.494;2022-10-31T15:58:47;21.55;;;12.48;;
56810;SDS011;42691;47.234;27.494;2022-10-31T16:01:53;24.30;;;9.95;;
56810;SDS011;42691;47.234;27.494;2022-10-31T16:06:36;21.27;;;10.68;;
56810;SDS011;42691;47.234;27.494;2022-10-31T16:09:02;14.55;;;9.52;;
56810;SDS011;42691;47.234;27.494;2022-10-31T16:14:05;17.97;;;12.17;;
56810;SDS011;42691;47.234;27.494;2022-10-31T16:16:43;43.85;;;17.20;;
56810;SDS011;42691;47.234;27.494;2022-10-31T16:19:15;23.42;;;12.73;;
56810;SDS011;42691;47.234;27.494;2022-10-31T16:21:46;17.73;;;10.52;;
56810;SDS011;42691;47.234;27.494;2022-10-31T16:24:17;15.05;;;9.55;;
56810;SDS011;42691;47.234;27.494;2022-10-31T16:26:48;17.92;;;11.45;;
56810;SDS011;42691;47.234;27.494;2022-10-31T16:31:54;18.67;;;10.25;;
56810;SDS011;42691;47.234;27.494;2022-10-31T16:34:20;15.13;;;9.35;;
56810;SDS011;42691;47.234;27.494;2022-10-31T16:36:46;18.42;;;8.80;;
56810;SDS011;42691;47.234;27.494;2022-10-31T16:39:13;18.02;;;10.60;;
56810;SDS011;42691;47.234;27.494;2022-10-31T16:41:42;16.52;;;11.07;;
56810;SDS011;42691;47.234;27.494;2022-10-31T16:47:08;13.63;;;8.20;;
56810;SDS011;42691;47.234;27.494;2022-10-31T16:49:34;14.15;;;8.98;;
56810;SDS011;42691;47.234;27.494;2022-10-31T16:51:59;14.30;;;9.57;;
56810;SDS011;42691;47.234;27.494;2022-10-31T16:54:25;16.58;;;8.95;;
56810;SDS011;42691;47.234;27.494;2022-10-31T16:56:50;18.67;;;9.10;;
56810;SDS011;42691;47.234;27.494;2022-10-31T16:59:16;11.13;;;8.48;;
56810;SDS011;42691;47.234;27.494;2022-10-31T17:01:47;17.80;;;9.63;;
56810;SDS011;42691;47.234;27.494;2022-10-31T17:04:13;12.60;;;8.05;;